CheckWX is a tool to help pilots better visualize weather data.  It is not intended as a substitute for an official pre-flight weather briefing.

04:54:06 UTC

CZFA METAR
Faro Airport
Faro, Canada
Current

4 hours ago

CZFA 260100Z 28010KT 220V330 30SM FEW050CB SCT080 SCT210 16/02 A2996 RMK CB1AC2CI1 CONTRAILS LAST STFD OBS/NXT 261300Z SLP168 DENSITY ALT 3000FT
Observed
Aug-26 @ 01:00 UTC
Wind
  • 280° at 10 KTS
Visibility
30 SM
Flight Rules
VFR
Cloud Levels
  • Few at 5,000' AGL
  • Scattered at 8,000' AGL
  • Scattered at 21,000' AGL
Temperature
16°C / 61°F
Dewpoint
C / 36°F
Humidity
39%
Altimeter
29.96" Hg
Pressure
1014.52 hPa
Previous

5 hours ago

CZFA 260000Z 28008KT 220V300 30SM FEW060CB SCT060TCU BKN092 BKN210 14/03 A2996 RMK CB1TCU2AC2CI1 VIRGA SLP168 DENSITY ALT 2800FT
Observed
Aug-26 @ 00:00 UTC
Wind
  • 280° at 8 KTS
Visibility
30 SM
Flight Rules
VFR
Cloud Levels
  • Few at 6,000' AGL
  • Scattered at 6,000' AGL
  • Broken at 9,200' AGL
  • Broken at 21,000' AGL
Temperature
14°C / 57°F
Dewpoint
C / 37°F
Humidity
48%
Altimeter
29.96" Hg
Pressure
1014.52 hPa
Previous

6 hours ago

CZFA 252300Z 27012G19KT 220V290 30SM FEW060CB BKN090 BKN210 15/03 A2996 RMK CB2AC3CI1 VIRGA SLP168 DENSITY ALT 2800FT
Observed
Aug-25 @ 23:00 UTC
Wind
  • 270° at 12 KTS
  • Gusting to 19 KTS
Visibility
30 SM
Flight Rules
VFR
Cloud Levels
  • Few at 6,000' AGL
  • Broken at 9,000' AGL
  • Broken at 21,000' AGL
Temperature
15°C / 59°F
Dewpoint
C / 37°F
Humidity
45%
Altimeter
29.96" Hg
Pressure
1014.52 hPa